Time;durP1;ratioP1;P1;durP2;ratioP2;P2;SDS_P1;SDS_P2;PMS_P1;PMS_P2;Temp;Humidity;BMP_temperature;BMP_pressure;BME280_temperature;BME280_humidity;BME280_pressure;Samples;Min_cycle;Max_cycle;Signal;HPM_P1;HPM_P2
2023/04/11 00:01:43;;;;;;;;;;;;;;;25.17;28.69;100156.94;5059577;28;1129;-29
2023/04/11 00:04:11;;;;;;;;;;;;;;;25.24;28.58;100147.06;5059487;28;1971;-27
2023/04/11 00:06:37;;;;;;;;;;;;;;;25.25;28.35;100142.53;5059678;28;1122;-27
2023/04/11 00:09:03;;;;;;;;;;;;;;;25.27;28.48;100146.72;5059259;28;1167;-30
2023/04/11 00:11:28;;;;;;;;;;;;;;;25.21;28.38;100143.94;5059119;28;1067;-31
2023/04/11 00:13:57;;;;;;;;;;;;;;;25.12;28.58;100141.34;5046031;28;1031;-28
2023/04/11 00:16:23;;;;;;;;;;;;;;;25.17;28.64;100149.66;5059685;28;1133;-28
2023/04/11 00:18:49;;;;;;;;;;;;;;;25.11;28.78;100147.72;5058843;28;1154;-29
2023/04/11 00:21:15;;;;;;;;;;;;;;;25.15;28.76;100143.66;5059388;28;1218;-27
2023/04/11 00:23:40;;;;;;;;;;;;;;;25.17;28.43;100132.69;5056289;28;1898;-30
2023/04/11 00:26:06;;;;;;;;;;;;;;;25.25;28.39;100131.75;5048029;28;1076;-29
2023/04/11 00:28:32;;;;;;;;;;;;;;;25.15;28.56;100121.28;5059030;28;1080;-31
2023/04/11 00:30:57;;;;;;;;;;;;;;;25.06;28.57;100121.38;5058923;28;1186;-27
2023/04/11 00:33:23;;;;;;;;;;;;;;;25.13;28.72;100109.84;5058701;28;1137;-30
2023/04/11 00:35:48;;;;;;;;;;;;;;;25.19;28.79;100111.84;5058663;28;1087;-29
2023/04/11 00:38:14;;;;;;;;;;;;;;;25.06;28.91;100110.59;5054708;28;1040;-27
2023/04/11 00:40:39;;;;;;;;;;;;;;;25.10;28.86;100108.38;5047395;28;1041;-28
2023/04/11 00:43:05;;;;;;;;;;;;;;;25.19;28.87;100112.66;5058718;28;1076;-27
2023/04/11 00:45:31;;;;;;;;;;;;;;;25.14;28.86;100096.22;5059046;28;1985;-27
2023/04/11 00:47:56;;;;;;;;;;;;;;;25.16;28.73;100093.34;5057339;28;1072;-29
2023/04/11 00:50:23;;;;;;;;;;;;;;;25.18;28.63;100086.75;5058348;28;1125;-27
2023/04/11 00:52:49;;;;;;;;;;;;;;;25.02;28.96;100078.88;5073834;28;1430;-30
2023/04/11 00:55:15;;;;;;;;;;;;;;;25.25;28.67;100080.63;5058926;28;1092;-29
2023/04/11 00:57:41;;;;;;;;;;;;;;;25.01;29.16;100069.13;5058383;28;1285;-28
2023/04/11 01:00:09;;;;;;;;;;;;;;;24.91;29.18;100070.22;5058238;28;1040;-27
2023/04/11 01:02:36;;;;;;;;;;;;;;;24.91;29.24;100064.00;5058567;28;1214;-29
2023/04/11 01:05:02;;;;;;;;;;;;;;;25.13;28.81;100046.09;5057961;28;1910;-31
2023/04/11 01:07:28;;;;;;;;;;;;;;;24.99;28.92;100042.38;5058485;28;1126;-31
2023/04/11 01:09:53;;;;;;;;;;;;;;;24.97;28.99;100044.47;5058276;28;1110;-28
2023/04/11 01:12:20;;;;;;;;;;;;;;;25.01;29.16;100063.72;5055024;28;1599;-27
2023/04/11 01:14:46;;;;;;;;;;;;;;;24.89;29.14;100052.59;5047920;28;1081;-27
2023/04/11 01:17:13;;;;;;;;;;;;;;;25.09;28.81;100035.91;5058154;28;1119;-28
2023/04/11 01:19:38;;;;;;;;;;;;;;;24.91;29.30;100029.03;5073793;28;1289;-30
2023/04/11 01:22:04;;;;;;;;;;;;;;;25.14;28.67;100034.31;5039694;28;1329;-27
2023/04/11 01:24:30;;;;;;;;;;;;;;;25.14;29.05;100031.63;5056485;28;1902;-30
2023/04/11 01:26:56;;;;;;;;;;;;;;;25.09;28.89;100031.34;5056469;28;1143;-27
2023/04/11 01:29:21;;;;;;;;;;;;;;;24.98;29.25;100024.59;5073293;28;1161;-28
2023/04/11 01:31:48;;;;;;;;;;;;;;;25.11;29.08;100023.94;5073198;28;1231;-29
2023/04/11 01:34:14;;;;;;;;;;;;;;;25.07;29.06;100019.97;5057678;28;1043;-29
2023/04/11 01:36:40;;;;;;;;;;;;;;;25.03;29.16;100005.19;5039264;28;1541;-30
2023/04/11 01:39:05;;;;;;;;;;;;;;;24.93;29.34;100014.38;5056740;28;1208;-28
2023/04/11 01:41:31;;;;;;;;;;;;;;;25.20;29.03;99995.06;5072419;28;1198;-29
2023/04/11 01:43:57;;;;;;;;;;;;;;;25.11;28.90;100002.41;5039663;28;1902;-28
2023/04/11 01:46:23;;;;;;;;;;;;;;;25.04;29.03;99990.72;5057820;28;1305;-27
2023/04/11 01:48:49;;;;;;;;;;;;;;;24.86;29.40;99991.09;5055805;28;1079;-27
2023/04/11 01:51:14;;;;;;;;;;;;;;;25.19;28.99;99988.03;5043536;28;1046;-29
2023/04/11 01:53:46;;;;;;;;;;;;;;;24.95;29.23;99979.22;5072975;28;1322;-31
2023/04/11 01:56:12;;;;;;;;;;;;;;;24.91;29.36;99969.84;5040444;28;1103;-29
2023/04/11 01:58:37;;;;;;;;;;;;;;;24.82;29.42;99959.16;5063005;28;1119;-27
2023/04/11 02:01:04;;;;;;;;;;;;;;;24.79;29.51;99948.78;5069350;28;1142;-27
2023/04/11 02:03:29;;;;;;;;;;;;;;;24.82;29.52;99947.59;5052483;28;1219;-27
2023/04/11 02:05:56;;;;;;;;;;;;;;;24.79;29.64;99948.78;5054566;28;1971;-28
2023/04/11 02:08:21;;;;;;;;;;;;;;;24.85;29.61;99949.91;5072748;28;1138;-27
2023/04/11 02:10:47;;;;;;;;;;;;;;;24.89;29.62;99947.66;5056920;28;1127;-28
2023/04/11 02:13:13;;;;;;;;;;;;;;;24.98;29.18;99943.88;5056832;28;904;-27
2023/04/11 02:15:38;;;;;;;;;;;;;;;24.88;29.48;99946.81;5069670;28;1206;-28
2023/04/11 02:18:04;;;;;;;;;;;;;;;24.80;29.47;99946.94;5064892;28;1328;-27
2023/04/11 02:20:29;;;;;;;;;;;;;;;24.91;29.45;99959.09;5072202;28;1175;-29
2023/04/11 02:22:57;;;;;;;;;;;;;;;25.09;29.21;99952.50;5071946;28;1913;-27
2023/04/11 02:25:23;;;;;;;;;;;;;;;24.90;29.37;99944.81;5056308;28;1894;-27
2023/04/11 02:27:49;;;;;;;;;;;;;;;24.87;29.40;99947.00;5056991;28;1154;-27
2023/04/11 02:30:14;;;;;;;;;;;;;;;24.88;29.43;99919.94;5069575;28;1101;-29
2023/04/11 02:32:42;;;;;;;;;;;;;;;25.01;29.16;99926.50;5046854;28;1055;-29
2023/04/11 02:35:08;;;;;;;;;;;;;;;24.93;29.36;99906.78;5056486;28;1074;-29
2023/04/11 02:37:33;;;;;;;;;;;;;;;25.07;29.15;99894.28;5062692;28;1226;-28
2023/04/11 02:40:00;;;;;;;;;;;;;;;24.83;29.44;99882.84;5054656;28;1143;-27
2023/04/11 02:42:26;;;;;;;;;;;;;;;24.97;29.28;99874.94;5056814;28;1161;-28
2023/04/11 02:44:55;;;;;;;;;;;;;;;24.87;29.42;99869.00;5056176;28;1918;-27
2023/04/11 02:47:24;;;;;;;;;;;;;;;24.94;29.31;99857.31;5071885;28;1225;-32
2023/04/11 02:49:50;;;;;;;;;;;;;;;24.84;29.61;99851.38;5071968;28;1114;-27
2023/04/11 02:52:21;;;;;;;;;;;;;;;25.06;29.24;99854.13;5072111;28;1179;-30
2023/04/11 02:54:47;;;;;;;;;;;;;;;24.94;29.47;99848.44;5054842;28;1168;-27
2023/04/11 02:57:13;;;;;;;;;;;;;;;24.97;29.27;99844.50;5071859;28;1948;-29
2023/04/11 02:59:39;;;;;;;;;;;;;;;25.12;29.08;99839.94;5055112;28;1308;-30
2023/04/11 03:02:04;;;;;;;;;;;;;;;25.02;29.34;99844.78;5043681;28;876;-27
2023/04/11 03:04:30;;;;;;;;;;;;;;;25.01;29.39;99835.88;5049375;28;1965;-29
2023/04/11 03:07:05;;;;;;;;;;;;;;;25.06;29.22;99838.81;5064824;28;2286;-26
2023/04/11 03:09:31;;;;;;;;;;;;;;;24.92;29.46;99840.53;5056146;28;1126;-27
2023/04/11 03:11:56;;;;;;;;;;;;;;;25.01;29.25;99835.03;5054594;28;1251;-29
2023/04/11 03:14:22;;;;;;;;;;;;;;;27.21;26.85;99844.06;5071193;28;926;-28
2023/04/11 03:16:47;;;;;;;;;;;;;;;26.56;26.51;99834.53;5069099;28;1154;-26
2023/04/11 03:19:13;;;;;;;;;;;;;;;24.08;29.96;99823.72;5044760;28;1113;-25
2023/04/11 03:21:39;;;;;;;;;;;;;;;24.40;30.29;99828.94;5067369;28;1682;-24
2023/04/11 03:24:05;;;;;;;;;;;;;;;28.31;24.51;99828.38;5071148;28;1906;-26
2023/04/11 03:26:31;;;;;;;;;;;;;;;28.84;23.08;99840.00;5054689;28;1276;-26
2023/04/11 03:29:01;;;;;;;;;;;;;;;28.95;22.98;99819.56;5049527;28;1125;-25
2023/04/11 03:31:31;;;;;;;;;;;;;;;29.40;22.41;99836.75;5071463;28;1690;-25
2023/04/11 03:33:58;;;;;;;;;;;;;;;28.99;22.78;99843.50;5071751;28;1163;-24
2023/04/11 03:36:27;;;;;;;;;;;;;;;28.95;22.68;99840.38;5071500;28;1237;-27
2023/04/11 03:38:53;;;;;;;;;;;;;;;28.57;23.42;99844.75;5055704;28;1155;-26
2023/04/11 03:41:19;;;;;;;;;;;;;;;28.70;23.89;99850.09;5071264;28;1325;-27
2023/04/11 03:43:44;;;;;;;;;;;;;;;25.46;26.78;99842.91;5071547;28;1902;-33
2023/04/11 03:46:10;;;;;;;;;;;;;;;22.24;32.28;99835.69;5071053;28;1130;-29
2023/04/11 03:48:40;;;;;;;;;;;;;;;21.02;34.60;99832.72;5071847;28;1284;-24
2023/04/11 03:51:07;;;;;;;;;;;;;;;24.87;29.03;99824.13;5056799;28;1979;-28
2023/04/11 03:53:42;;;;;;;;;;;;;;;27.69;24.23;99828.72;5070585;28;1326;-26
2023/04/11 03:56:33;;;;;;;;;;;;;;;24.58;29.75;99818.63;5054581;28;1871;-28
2023/04/11 03:58:59;;;;;;;;;;;;;;;25.43;29.12;99829.84;5054258;28;1235;-29
2023/04/11 04:01:31;;;;;;;;;;;;;;;28.44;24.78;99841.06;5049679;28;1499;-26
2023/04/11 04:04:01;;;;;;;;;;;;;;;27.61;25.53;99841.38;5048095;28;1976;-26
2023/04/11 04:06:28;;;;;;;;;;;;;;;27.50;25.66;99847.41;5034203;28;1158;-28
2023/04/11 04:08:55;;;;;;;;;;;;;;;27.72;25.42;99848.06;5054275;28;1507;-26
2023/04/11 04:11:20;;;;;;;;;;;;;;;26.06;27.80;99839.00;5070417;28;1412;-28
2023/04/11 04:13:46;;;;;;;;;;;;;;;25.39;28.73;99833.97;5054052;28;1020;-29
2023/04/11 04:16:16;;;;;;;;;;;;;;;26.96;26.88;99842.72;5074878;28;1650;-29
2023/04/11 04:18:46;;;;;;;;;;;;;;;26.81;26.57;99836.69;5074899;28;1345;-29
2023/04/11 04:21:12;;;;;;;;;;;;;;;25.72;28.42;99829.88;5059254;28;1019;-27
2023/04/11 04:23:46;;;;;;;;;;;;;;;25.75;28.91;99822.25;5075099;28;1973;-30
2023/04/11 04:26:28;;;;;;;;;;;;;;;26.36;27.72;99813.72;5074003;28;1257;-28
2023/04/11 04:29:08;;;;;;;;;;;;;;;26.74;27.38;99813.19;5074364;28;2080;-27
2023/04/11 04:31:49;;;;;;;;;;;;;;;27.12;26.91;99795.69;5074328;28;1436;-27
2023/04/11 04:34:20;;;;;;;;;;;;;;;26.86;26.65;99797.25;5074448;28;1289;-28
2023/04/11 04:36:55;;;;;;;;;;;;;;;26.84;26.86;99802.03;5054453;28;1287;-26
2023/04/11 04:39:28;;;;;;;;;;;;;;;26.27;27.72;99794.97;5044035;28;1338;-28
2023/04/11 04:42:00;;;;;;;;;;;;;;;26.28;27.73;99793.94;5057474;28;1452;-29
2023/04/11 04:44:33;;;;;;;;;;;;;;;27.35;26.22;99797.13;5073850;28;1898;-27
2023/04/11 04:47:03;;;;;;;;;;;;;;;26.17;27.97;99783.72;5074500;28;1182;-28
2023/04/11 04:49:29;;;;;;;;;;;;;;;26.14;28.18;99778.75;5057924;28;1051;-26
2023/04/11 04:51:55;;;;;;;;;;;;;;;26.65;27.34;99776.66;5049388;28;1051;-27
2023/04/11 04:54:21;;;;;;;;;;;;;;;26.72;27.52;99776.69;5067356;28;1257;-28
2023/04/11 04:56:47;;;;;;;;;;;;;;;27.22;26.63;99764.72;5064016;28;1235;-26
2023/04/11 04:59:15;;;;;;;;;;;;;;;26.08;27.82;99760.66;5057016;28;1296;-27
2023/04/11 05:01:43;;;;;;;;;;;;;;;26.45;27.61;99758.56;5073713;28;1142;-27
2023/04/11 05:04:09;;;;;;;;;;;;;;;26.72;27.62;99761.34;5071136;28;1906;-28
2023/04/11 05:06:53;;;;;;;;;;;;;;;26.90;26.92;99765.28;5044142;28;1301;-28
2023/04/11 05:09:19;;;;;;;;;;;;;;;27.39;26.52;99754.34;5053425;28;1293;-29
2023/04/11 05:11:46;;;;;;;;;;;;;;;26.27;27.64;99751.00;5066811;28;1402;-28
2023/04/11 05:14:11;;;;;;;;;;;;;;;26.95;26.99;99743.94;5056775;28;1120;-28
2023/04/11 05:16:41;;;;;;;;;;;;;;;26.83;26.96;99734.75;5056781;28;1331;-28
2023/04/11 05:19:07;;;;;;;;;;;;;;;27.02;27.03;99742.09;5040782;28;1438;-30
2023/04/11 05:21:37;;;;;;;;;;;;;;;27.45;26.39;99740.00;5056550;28;1186;-27
2023/04/11 05:24:03;;;;;;;;;;;;;;;26.23;27.83;99720.09;5073345;28;1917;-27
2023/04/11 05:26:33;;;;;;;;;;;;;;;26.49;27.47;99715.84;5071891;28;1190;-27
2023/04/11 05:28:59;;;;;;;;;;;;;;;26.80;27.71;99719.00;5037920;28;1206;-27
2023/04/11 05:31:27;;;;;;;;;;;;;;;27.08;27.44;99715.28;5053439;28;1135;-27
2023/04/11 05:33:53;;;;;;;;;;;;;;;27.48;26.33;99709.03;5073501;28;1505;-27
2023/04/11 05:36:19;;;;;;;;;;;;;;;26.81;27.46;99701.78;5073479;28;1239;-27
2023/04/11 05:38:45;;;;;;;;;;;;;;;26.68;27.19;99705.28;5057754;28;1098;-27
2023/04/11 05:41:10;;;;;;;;;;;;;;;26.83;27.21;99708.63;5057123;28;1099;-26
2023/04/11 05:43:36;;;;;;;;;;;;;;;27.19;26.97;99703.91;5043208;28;1273;-27
2023/04/11 05:46:02;;;;;;;;;;;;;;;26.65;27.05;99696.59;5060630;28;1977;-27
2023/04/11 05:48:28;;;;;;;;;;;;;;;27.01;27.21;99696.38;5072680;28;1170;-28
2023/04/11 05:50:53;;;;;;;;;;;;;;;26.92;27.14;99681.44;5050515;28;1289;-29
2023/04/11 05:53:19;;;;;;;;;;;;;;;26.95;27.26;99689.13;5037625;28;1100;-27
2023/04/11 05:55:44;;;;;;;;;;;;;;;27.34;26.26;99681.22;5037737;28;1041;-27
2023/04/11 05:58:10;;;;;;;;;;;;;;;26.48;27.25;99669.16;5049660;28;1542;-31
2023/04/11 06:00:37;;;;;;;;;;;;;;;27.19;26.29;99687.69;5048287;28;1170;-29
2023/04/11 06:03:03;;;;;;;;;;;;;;;26.87;27.08;99687.47;5045607;28;1016;-27
2023/04/11 06:05:30;;;;;;;;;;;;;;;27.04;27.08;99679.81;5037597;28;1906;-28
2023/04/11 06:07:58;;;;;;;;;;;;;;;27.51;26.47;99687.00;5055476;28;1032;-27
2023/04/11 06:10:24;;;;;;;;;;;;;;;27.08;27.04;99680.22;5056908;28;1110;-27
2023/04/11 06:12:50;;;;;;;;;;;;;;;26.71;27.20;99689.50;5055968;28;1330;-27
2023/04/11 06:15:16;;;;;;;;;;;;;;;27.00;27.02;99690.16;5045307;28;849;-30
2023/04/11 06:17:41;;;;;;;;;;;;;;;27.31;26.58;99685.16;5055290;28;1045;-27
2023/04/11 06:20:07;;;;;;;;;;;;;;;26.59;26.88;99675.00;5056839;28;1057;-31
2023/04/11 06:22:33;;;;;;;;;;;;;;;27.09;26.79;99676.50;5056157;28;1155;-28
2023/04/11 06:24:58;;;;;;;;;;;;;;;27.06;27.08;99682.31;5056856;28;1914;-28
2023/04/11 06:27:25;;;;;;;;;;;;;;;27.09;26.80;99674.59;5056551;28;1094;-27
2023/04/11 06:29:50;;;;;;;;;;;;;;;27.49;26.04;99676.41;5056532;28;1051;-27
2023/04/11 06:32:16;;;;;;;;;;;;;;;26.86;27.09;99666.94;5056883;28;1059;-27
2023/04/11 06:34:42;;;;;;;;;;;;;;;27.16;26.29;99666.50;5056439;28;1134;-29
2023/04/11 06:37:07;;;;;;;;;;;;;;;26.84;27.40;99674.38;5055502;28;1110;-27
2023/04/11 06:39:33;;;;;;;;;;;;;;;27.13;26.61;99666.91;5056085;28;1008;-27
2023/04/11 06:41:59;;;;;;;;;;;;;;;26.94;26.70;99660.47;5056835;28;1143;-27
2023/04/11 06:44:25;;;;;;;;;;;;;;;26.98;26.99;99662.53;5056587;28;1910;-31
2023/04/11 06:46:50;;;;;;;;;;;;;;;26.97;27.27;99662.75;5056440;28;1110;-23
2023/04/11 06:49:17;;;;;;;;;;;;;;;27.30;26.66;99661.06;5039084;28;1074;-24
2023/04/11 06:51:45;;;;;;;;;;;;;;;27.40;26.27;99647.97;5039179;28;945;-26
2023/04/11 06:54:11;;;;;;;;;;;;;;;26.93;26.79;99653.41;5054118;28;1055;-25
2023/04/11 06:56:37;;;;;;;;;;;;;;;26.97;26.81;99649.25;5055106;28;1215;-23
2023/04/11 06:59:02;;;;;;;;;;;;;;;26.93;26.77;99648.00;5056089;28;1182;-24
2023/04/11 07:01:34;;;;;;;;;;;;;;;27.12;26.67;99638.28;5056768;28;1118;-24
2023/04/11 07:04:03;;;;;;;;;;;;;;;27.63;25.67;99625.88;5050552;28;1902;-22
2023/04/11 07:06:29;;;;;;;;;;;;;;;26.98;26.50;99629.31;5036307;28;1347;-24
2023/04/11 07:08:55;;;;;;;;;;;;;;;26.95;26.67;99621.66;5036714;28;1135;-24
2023/04/11 07:11:21;;;;;;;;;;;;;;;27.08;26.62;99623.53;5049148;28;1130;-22
2023/04/11 07:13:48;;;;;;;;;;;;;;;27.37;26.18;99627.63;5055808;28;1155;-23
2023/04/11 07:16:13;;;;;;;;;;;;;;;27.02;26.64;99620.66;5055772;28;965;-22
2023/04/11 07:18:39;;;;;;;;;;;;;;;27.21;26.56;99623.50;5056155;28;1027;-23
2023/04/11 07:21:05;;;;;;;;;;;;;;;27.15;26.47;99624.34;5055905;28;1062;-23
2023/04/11 07:23:30;;;;;;;;;;;;;;;27.21;26.22;99617.28;5052152;28;1094;-23
2023/04/11 07:25:56;;;;;;;;;;;;;;;27.51;25.76;99614.91;5036308;28;1910;-24
2023/04/11 07:28:22;;;;;;;;;;;;;;;26.84;26.66;99623.13;5052777;28;1068;-24
2023/04/11 07:30:48;;;;;;;;;;;;;;;27.36;26.17;99619.75;5044913;28;1118;-24
2023/04/11 07:33:13;;;;;;;;;;;;;;;27.09;26.33;99611.72;5036270;28;1167;-23
2023/04/11 07:35:39;;;;;;;;;;;;;;;27.22;26.37;99606.28;5047874;28;1087;-24
2023/04/11 07:38:05;;;;;;;;;;;;;;;27.45;25.92;99613.06;5056021;28;1076;-23
2023/04/11 07:40:30;;;;;;;;;;;;;;;27.14;27.06;99614.59;5044247;28;896;-26
2023/04/11 07:42:56;;;;;;;;;;;;;;;26.96;27.02;99599.03;5050816;28;1417;-25
2023/04/11 07:45:21;;;;;;;;;;;;;;;27.17;26.99;99597.97;5047586;28;1918;-24
2023/04/11 07:47:47;;;;;;;;;;;;;;;27.18;26.59;99610.44;5051232;28;1057;-23
2023/04/11 07:50:13;;;;;;;;;;;;;;;26.62;26.99;99588.28;5058796;28;1106;-23
2023/04/11 07:52:38;;;;;;;;;;;;;;;26.54;27.29;99597.41;5059573;28;826;-27
2023/04/11 07:55:04;;;;;;;;;;;;;;;26.89;27.24;99586.38;5060255;28;1131;-24
2023/04/11 07:57:30;;;;;;;;;;;;;;;27.14;26.76;99577.63;5059338;28;1125;-24
2023/04/11 07:59:57;;;;;;;;;;;;;;;27.57;25.81;99569.16;5059752;28;1272;-24
2023/04/11 08:02:23;;;;;;;;;;;;;;;26.42;27.53;99562.13;5059682;28;1150;-25
2023/04/11 08:04:49;;;;;;;;;;;;;;;26.58;27.21;99554.66;5058767;28;1937;-24
2023/04/11 08:07:14;;;;;;;;;;;;;;;26.95;27.06;99555.03;5059368;28;1138;-24
2023/04/11 08:09:42;;;;;;;;;;;;;;;27.17;26.58;99565.59;5059521;28;1174;-24
2023/04/11 08:12:08;;;;;;;;;;;;;;;27.56;25.89;99560.22;5058035;28;1170;-25
2023/04/11 08:14:34;;;;;;;;;;;;;;;26.59;27.24;99550.94;5059035;28;1202;-25
2023/04/11 08:17:00;;;;;;;;;;;;;;;26.59;27.00;99542.84;5051726;28;941;-24
2023/04/11 08:19:26;;;;;;;;;;;;;;;26.95;26.66;99544.22;5039769;28;1075;-25
2023/04/11 08:21:51;;;;;;;;;;;;;;;27.23;26.81;99545.84;5058951;28;1163;-24
2023/04/11 08:24:17;;;;;;;;;;;;;;;27.21;26.49;99534.41;5059076;28;1989;-25
2023/04/11 08:26:42;;;;;;;;;;;;;;;26.65;27.11;99529.34;5059082;28;1127;-23
2023/04/11 08:29:10;;;;;;;;;;;;;;;26.55;27.28;99520.00;5059018;28;933;-24
2023/04/11 08:31:36;;;;;;;;;;;;;;;27.00;26.96;99533.63;5058674;28;1036;-25
2023/04/11 08:34:01;;;;;;;;;;;;;;;27.42;26.04;99527.06;5059252;28;1051;-23
2023/04/11 08:36:27;;;;;;;;;;;;;;;26.24;27.55;99519.59;5059010;28;1087;-23
2023/04/11 08:38:54;;;;;;;;;;;;;;;27.06;26.84;99517.66;5059206;28;1222;-25
2023/04/11 08:41:20;;;;;;;;;;;;;;;26.84;27.09;99526.81;5045109;28;950;-23
2023/04/11 08:43:46;;;;;;;;;;;;;;;27.08;26.77;99518.25;5059242;28;1055;-26
2023/04/11 08:46:12;;;;;;;;;;;;;;;25.80;25.81;99274.81;5058709;28;1159;-23
2023/04/11 08:48:38;;;;;;;;;;;;;;;26.57;27.10;99513.38;5047863;28;1059;-23
2023/04/11 08:51:03;;;;;;;;;;;;;;;26.58;27.38;99509.63;5056677;28;1099;-25
2023/04/11 08:53:29;;;;;;;;;;;;;;;26.94;26.48;99507.50;5058428;28;1089;-23
2023/04/11 08:55:54;;;;;;;;;;;;;;;27.35;25.96;99496.56;5058160;28;1167;-26
2023/04/11 08:58:20;;;;;;;;;;;;;;;26.19;27.46;99485.19;5054257;28;1208;-23
2023/04/11 09:00:45;;;;;;;;;;;;;;;26.64;26.99;99479.13;5048122;28;1246;-25
2023/04/11 09:03:11;;;;;;;;;;;;;;;26.82;26.78;99484.91;5043877;28;1052;-25
2023/04/11 09:05:38;;;;;;;;;;;;;;;27.09;26.74;99480.25;5049911;28;1901;-24
2023/04/11 09:08:05;;;;;;;;;;;;;;;27.39;26.45;99484.28;5041261;28;992;-23
2023/04/11 09:10:31;;;;;;;;;;;;;;;26.57;27.83;99472.09;5038640;28;1198;-24
2023/04/11 09:12:56;;;;;;;;;;;;;;;26.31;27.69;99479.16;5042241;28;1131;-23
2023/04/11 09:15:23;;;;;;;;;;;;;;;27.03;27.29;99475.72;5048818;28;1095;-23
2023/04/11 09:17:48;;;;;;;;;;;;;;;27.32;26.59;99473.53;5062385;28;1174;-24
2023/04/11 09:20:15;;;;;;;;;;;;;;;26.60;27.44;99458.19;5056760;28;1062;-23
2023/04/11 09:22:41;;;;;;;;;;;;;;;26.59;27.76;99454.63;5042615;28;1147;-23
2023/04/11 09:25:06;;;;;;;;;;;;;;;26.89;27.56;99453.34;5058119;28;1942;-23
2023/04/11 09:27:32;;;;;;;;;;;;;;;27.13;26.78;99445.56;5057392;28;1127;-23
2023/04/11 09:29:58;;;;;;;;;;;;;;;27.46;26.28;99454.56;5058070;28;1139;-23
2023/04/11 09:32:32;;;;;;;;;;;;;;;26.78;27.54;99436.75;5057782;28;1238;-26
2023/04/11 09:35:14;;;;;;;;;;;;;;;26.73;27.83;99439.25;5057778;28;1123;-26
2023/04/11 09:37:49;;;;;;;;;;;;;;;26.99;27.36;99429.41;5057606;28;1139;-25
2023/04/11 09:40:16;;;;;;;;;;;;;;;27.39;26.82;99424.88;5058136;28;1181;-23
2023/04/11 09:42:42;;;;;;;;;;;;;;;26.47;27.71;99410.50;5044216;28;1142;-24
2023/04/11 09:45:17;;;;;;;;;;;;;;;27.22;26.82;99406.50;5057772;28;1902;-26
2023/04/11 09:47:43;;;;;;;;;;;;;;;26.91;27.38;99410.75;5057349;28;1218;-24
2023/04/11 09:50:09;;;;;;;;;;;;;;;27.14;27.02;99404.06;5057790;28;1078;-23
2023/04/11 09:52:35;;;;;;;;;;;;;;;26.82;27.00;99390.47;5057354;28;1099;-23
2023/04/11 09:55:01;;;;;;;;;;;;;;;26.97;27.28;99388.34;5057323;28;1062;-24
2023/04/11 09:57:29;;;;;;;;;;;;;;;27.02;27.47;99390.41;5056280;28;1037;-23
2023/04/11 09:59:54;;;;;;;;;;;;;;;26.99;27.35;99388.91;5050139;28;1192;-26
2023/04/11 10:02:20;;;;;;;;;;;;;;;27.37;27.05;99390.00;5048994;28;1071;-26
2023/04/11 10:04:46;;;;;;;;;;;;;;;26.86;27.55;99378.22;5045772;28;1911;-24
2023/04/11 10:07:13;;;;;;;;;;;;;;;27.00;27.23;99376.25;5037437;28;1380;-23
2023/04/11 10:09:39;;;;;;;;;;;;;;;27.18;27.51;99370.16;5037045;28;1090;-25
2023/04/11 10:12:06;;;;;;;;;;;;;;;27.39;27.22;99368.19;5039885;28;1063;-23
2023/04/11 10:14:37;;;;;;;;;;;;;;;26.43;27.93;99358.88;5056971;28;1059;-24
2023/04/11 10:17:21;;;;;;;;;;;;;;;26.72;27.50;99353.16;5055531;28;1075;-25
2023/04/11 10:19:48;;;;;;;;;;;;;;;26.95;27.67;99347.22;5056849;28;1064;-23
2023/04/11 10:22:32;;;;;;;;;;;;;;;27.24;27.14;99355.78;5056850;28;1106;-23
2023/04/11 10:25:13;;;;;;;;;;;;;;;26.89;27.47;99351.59;5056784;28;1991;-23
2023/04/11 10:27:49;;;;;;;;;;;;;;;26.89;27.47;99345.41;5056415;28;1406;-23
2023/04/11 10:30:14;;;;;;;;;;;;;;;27.09;27.24;99339.91;5043923;28;897;-25
2023/04/11 10:32:40;;;;;;;;;;;;;;;27.20;27.29;99332.16;5057154;28;1182;-26
2023/04/11 10:35:15;;;;;;;;;;;;;;;27.52;26.85;99332.16;5061806;28;1197;-24
2023/04/11 10:37:41;;;;;;;;;;;;;;;26.49;28.17;99331.03;5052096;28;1108;-27
2023/04/11 10:40:09;;;;;;;;;;;;;;;27.26;26.98;99339.38;5056232;28;1182;-24
2023/04/11 10:42:39;;;;;;;;;;;;;;;27.14;27.71;99323.06;5040766;28;1058;-24
2023/04/11 10:45:23;;;;;;;;;;;;;;;27.34;27.04;99316.72;5046203;28;1910;-23
2023/04/11 10:47:55;;;;;;;;;;;;;;;26.75;27.61;99318.50;5056362;28;1139;-25
2023/04/11 10:50:33;;;;;;;;;;;;;;;26.99;27.47;99313.34;5056420;28;1135;-24
2023/04/11 10:53:02;;;;;;;;;;;;;;;26.99;27.56;99310.66;5037010;28;1254;-25
2023/04/11 10:55:28;;;;;;;;;;;;;;;27.17;27.40;99316.41;5051332;28;1313;-26
2023/04/11 10:58:06;;;;;;;;;;;;;;;27.58;27.10;99306.94;5055733;28;1218;-24
2023/04/11 11:00:54;;;;;;;;;;;;;;;26.83;27.70;99311.19;5056348;28;1249;-25
2023/04/11 11:03:20;;;;;;;;;;;;;;;26.70;28.07;99304.81;5056151;28;1238;-23
2023/04/11 11:05:46;;;;;;;;;;;;;;;27.18;27.41;99310.78;5051481;28;1977;-23
2023/04/11 11:08:11;;;;;;;;;;;;;;;27.54;26.72;99311.16;5045400;28;1234;-23
2023/04/11 11:10:37;;;;;;;;;;;;;;;26.37;28.19;99303.09;5053456;28;1321;-24
2023/04/11 11:13:03;;;;;;;;;;;;;;;27.02;27.35;99312.97;5036395;28;1136;-25
2023/04/11 11:15:30;;;;;;;;;;;;;;;27.11;27.21;99304.63;5049017;28;1258;-24
2023/04/11 11:17:55;;;;;;;;;;;;;;;27.28;27.12;99291.41;5039669;28;902;-23
2023/04/11 11:20:21;;;;;;;;;;;;;;;27.23;26.80;99292.06;5039666;28;1341;-26
2023/04/11 11:23:00;;;;;;;;;;;;;;;26.85;27.45;99292.91;5056827;28;1155;-30
2023/04/11 11:25:26;;;;;;;;;;;;;;;26.86;27.69;99281.91;5059638;28;1978;-25
2023/04/11 11:28:01;;;;;;;;;;;;;;;27.14;27.67;99280.69;5043288;28;1357;-24
2023/04/11 11:30:27;;;;;;;;;;;;;;;27.53;26.91;99278.97;5059102;28;1068;-23
2023/04/11 11:32:53;;;;;;;;;;;;;;;26.34;28.26;99285.47;5059738;28;1082;-27
2023/04/11 11:35:18;;;;;;;;;;;;;;;26.96;27.43;99280.59;5042946;28;1352;-23
2023/04/11 11:37:44;;;;;;;;;;;;;;;27.12;27.47;99277.41;5044724;28;1087;-23
2023/04/11 11:40:12;;;;;;;;;;;;;;;27.45;27.15;99267.38;5047690;28;1284;-23
2023/04/11 11:42:40;;;;;;;;;;;;;;;26.71;27.59;99265.19;5051182;28;837;-25
2023/04/11 11:45:19;;;;;;;;;;;;;;;27.11;27.17;99259.53;5042206;28;1914;-23
2023/04/11 11:47:45;;;;;;;;;;;;;;;27.01;27.75;99253.78;5042883;28;1210;-22
2023/04/11 11:50:11;;;;;;;;;;;;;;;27.23;27.16;99256.13;5049969;28;1035;-23
2023/04/11 11:52:38;;;;;;;;;;;;;;;27.63;26.64;99265.75;5059277;28;1117;-23
2023/04/11 11:55:08;;;;;;;;;;;;;;;26.62;28.00;99254.66;5049344;28;1050;-23
2023/04/11 11:57:35;;;;;;;;;;;;;;;26.75;27.78;99263.72;5056941;28;1160;-26
2023/04/11 12:00:01;;;;;;;;;;;;;;;27.15;27.58;99254.53;5059243;28;1145;-23
2023/04/11 12:02:26;;;;;;;;;;;;;;;27.38;26.86;99264.72;5059358;28;1023;-22
2023/04/11 12:04:59;;;;;;;;;;;;;;;27.05;27.35;99254.19;5042881;28;1985;-22
2023/04/11 12:07:25;;;;;;;;;;;;;;;27.05;27.38;99244.25;5039534;28;1246;-24
2023/04/11 12:09:55;;;;;;;;;;;;;;;27.04;27.39;99241.75;5039111;28;1147;-22
2023/04/11 12:12:21;;;;;;;;;;;;;;;27.12;27.53;99253.13;5050511;28;1079;-23
2023/04/11 12:14:53;;;;;;;;;;;;;;;27.47;26.89;99253.66;5059153;28;1131;-23
2023/04/11 12:17:19;;;;;;;;;;;;;;;26.36;28.49;99242.97;5056124;28;1088;-23
2023/04/11 12:19:44;;;;;;;;;;;;;;;27.00;27.57;99238.63;5039692;28;1119;-23
2023/04/11 12:22:10;;;;;;;;;;;;;;;27.12;27.46;99238.78;5054979;28;1099;-22
2023/04/11 12:24:35;;;;;;;;;;;;;;;27.31;27.03;99236.16;5058721;28;1906;-26
2023/04/11 12:27:02;;;;;;;;;;;;;;;26.95;27.40;99223.09;5058697;28;1257;-23
2023/04/11 12:29:28;;;;;;;;;;;;;;;26.81;27.70;99221.56;5058771;28;1108;-24
2023/04/11 12:31:53;;;;;;;;;;;;;;;26.82;28.16;99212.41;5058675;28;1237;-23
2023/04/11 12:34:19;;;;;;;;;;;;;;;27.09;27.43;99226.53;5057974;28;1074;-22
2023/04/11 12:36:44;;;;;;;;;;;;;;;27.42;26.97;99207.59;5058705;28;1047;-26
2023/04/11 12:39:10;;;;;;;;;;;;;;;26.33;28.52;99207.50;5057811;28;1047;-24
2023/04/11 12:41:35;;;;;;;;;;;;;;;26.97;27.93;99212.94;5045227;28;1480;-25
2023/04/11 12:44:02;;;;;;;;;;;;;;;27.07;27.68;99211.63;5045386;28;1909;-24
2023/04/11 12:46:28;;;;;;;;;;;;;;;27.33;27.19;99217.84;5058332;28;1023;-24
2023/04/11 12:48:54;;;;;;;;;;;;;;;27.29;27.17;99220.16;5058577;28;1137;-23
2023/04/11 12:51:19;;;;;;;;;;;;;;;26.73;28.21;99206.44;5058624;28;1217;-25
2023/04/11 12:53:45;;;;;;;;;;;;;;;26.74;27.95;99210.81;5057765;28;1127;-23
2023/04/11 12:56:10;;;;;;;;;;;;;;;27.17;27.54;99200.34;5038625;28;1167;-23